sensor_id;sensor_type;location;lat;lon;timestamp;pressure;altitude;pressure_sealevel;temperature;humidity
4410;BME280;2218;51.408;7.208;2023-07-22T00:00:06;99612.47;;;23.44;46.79
4410;BME280;2218;51.408;7.208;2023-07-22T00:02:39;99605.50;;;23.43;46.49
4410;BME280;2218;51.408;7.208;2023-07-22T00:05:07;99610.81;;;23.43;46.79
4410;BME280;2218;51.408;7.208;2023-07-22T00:07:36;99608.16;;;23.43;46.65
4410;BME280;2218;51.408;7.208;2023-07-22T00:10:05;99605.50;;;23.43;46.55
4410;BME280;2218;51.408;7.208;2023-07-22T00:12:32;99608.28;;;23.42;46.32
4410;BME280;2218;51.408;7.208;2023-07-22T00:15:00;99605.63;;;23.42;46.76
4410;BME280;2218;51.408;7.208;2023-07-22T00:17:26;99608.28;;;23.42;46.60
4410;BME280;2218;51.408;7.208;2023-07-22T00:19:53;99603.94;;;23.41;46.50
4410;BME280;2218;51.408;7.208;2023-07-22T00:22:21;99601.28;;;23.41;46.90
4410;BME280;2218;51.408;7.208;2023-07-22T00:24:48;99596.00;;;23.41;46.64
4410;BME280;2218;51.408;7.208;2023-07-22T00:27:16;99592.50;;;23.40;46.70
4410;BME280;2218;51.408;7.208;2023-07-22T00:29:43;99595.16;;;23.40;46.32
4410;BME280;2218;51.408;7.208;2023-07-22T00:32:10;99589.00;;;23.40;46.28
4410;BME280;2218;51.408;7.208;2023-07-22T00:34:37;99593.47;;;23.39;46.04
4410;BME280;2218;51.408;7.208;2023-07-22T00:37:04;99586.50;;;23.38;46.65
4410;BME280;2218;51.408;7.208;2023-07-22T00:39:31;99592.66;;;23.39;46.06
4410;BME280;2218;51.408;7.208;2023-07-22T00:41:58;99592.66;;;23.39;46.55
4410;BME280;2218;51.408;7.208;2023-07-22T00:44:27;99594.47;;;23.38;46.19
4410;BME280;2218;51.408;7.208;2023-07-22T00:46:56;99592.66;;;23.39;46.11
4410;BME280;2218;51.408;7.208;2023-07-22T00:49:26;99587.50;;;23.37;46.44
4410;BME280;2218;51.408;7.208;2023-07-22T00:51:54;99589.28;;;23.37;46.61
4410;BME280;2218;51.408;7.208;2023-07-22T00:54:23;99585.78;;;23.36;46.62
4410;BME280;2218;51.408;7.208;2023-07-22T00:56:50;99584.94;;;23.36;46.71
4410;BME280;2218;51.408;7.208;2023-07-22T00:59:17;99583.13;;;23.36;46.83
4410;BME280;2218;51.408;7.208;2023-07-22T01:01:46;99580.47;;;23.36;46.33
4410;BME280;2218;51.408;7.208;2023-07-22T01:04:15;99579.66;;;23.36;46.43
4410;BME280;2218;51.408;7.208;2023-07-22T01:06:46;99576.16;;;23.35;46.35
4410;BME280;2218;51.408;7.208;2023-07-22T01:09:14;99577.00;;;23.36;46.34
4410;BME280;2218;51.408;7.208;2023-07-22T01:11:40;99570.84;;;23.35;46.45
4410;BME280;2218;51.408;7.208;2023-07-22T01:14:09;99569.19;;;23.34;45.81
4410;BME280;2218;51.408;7.208;2023-07-22T01:16:36;99563.88;;;23.34;46.40
4410;BME280;2218;51.408;7.208;2023-07-22T01:19:06;99559.41;;;23.35;46.17
4410;BME280;2218;51.408;7.208;2023-07-22T01:21:36;99562.22;;;23.33;45.85
4410;BME280;2218;51.408;7.208;2023-07-22T01:24:05;99557.75;;;23.34;45.82
4410;BME280;2218;51.408;7.208;2023-07-22T01:26:33;99562.22;;;23.33;46.42
4410;BME280;2218;51.408;7.208;2023-07-22T01:29:04;99555.25;;;23.32;46.31
4410;BME280;2218;51.408;7.208;2023-07-22T01:31:34;99557.03;;;23.32;45.93
4410;BME280;2218;51.408;7.208;2023-07-22T01:34:01;99555.25;;;23.32;46.36
4410;BME280;2218;51.408;7.208;2023-07-22T01:36:30;99564.13;;;23.31;46.04
4410;BME280;2218;51.408;7.208;2023-07-22T01:38:57;99565.13;;;23.30;45.93
4410;BME280;2218;51.408;7.208;2023-07-22T01:41:25;99563.31;;;23.31;46.67
4410;BME280;2218;51.408;7.208;2023-07-22T01:43:52;99564.13;;;23.31;46.42
4410;BME280;2218;51.408;7.208;2023-07-22T01:46:18;99562.47;;;23.30;46.53
4410;BME280;2218;51.408;7.208;2023-07-22T01:48:47;99557.16;;;23.30;45.96
4410;BME280;2218;51.408;7.208;2023-07-22T01:51:14;99557.16;;;23.30;46.12
4410;BME280;2218;51.408;7.208;2023-07-22T01:53:41;99559.13;;;23.28;46.38
4410;BME280;2218;51.408;7.208;2023-07-22T01:56:08;99559.97;;;23.29;46.29
4410;BME280;2218;51.408;7.208;2023-07-22T01:58:36;99552.00;;;23.29;45.94
4410;BME280;2218;51.408;7.208;2023-07-22T02:01:03;99558.16;;;23.29;46.00
4410;BME280;2218;51.408;7.208;2023-07-22T02:03:30;99557.44;;;23.27;45.73
4410;BME280;2218;51.408;7.208;2023-07-22T02:06:02;99553.00;;;23.28;45.93
4410;BME280;2218;51.408;7.208;2023-07-22T02:08:29;99557.44;;;23.27;45.81
4410;BME280;2218;51.408;7.208;2023-07-22T02:11:01;99549.47;;;23.27;45.99
4410;BME280;2218;51.408;7.208;2023-07-22T02:13:30;99553.09;;;23.26;46.03
4410;BME280;2218;51.408;7.208;2023-07-22T02:15:58;99550.44;;;23.26;45.75
4410;BME280;2218;51.408;7.208;2023-07-22T02:18:26;99549.47;;;23.27;46.28
4410;BME280;2218;51.408;7.208;2023-07-22T02:20:53;99545.16;;;23.26;45.82
4410;BME280;2218;51.408;7.208;2023-07-22T02:23:21;99546.13;;;23.25;45.78
4410;BME280;2218;51.408;7.208;2023-07-22T02:25:49;99548.78;;;23.25;46.48
4410;BME280;2218;51.408;7.208;2023-07-22T02:28:18;99548.78;;;23.25;46.38
4410;BME280;2218;51.408;7.208;2023-07-22T02:30:46;99547.13;;;23.24;46.40
4410;BME280;2218;51.408;7.208;2023-07-22T02:33:15;99547.13;;;23.24;45.89
4410;BME280;2218;51.408;7.208;2023-07-22T02:35:42;99539.16;;;23.24;45.90
4410;BME280;2218;51.408;7.208;2023-07-22T02:38:09;99547.13;;;23.24;45.58
4410;BME280;2218;51.408;7.208;2023-07-22T02:40:37;99547.13;;;23.24;45.79
4410;BME280;2218;51.408;7.208;2023-07-22T02:43:04;99541.81;;;23.24;45.83
4410;BME280;2218;51.408;7.208;2023-07-22T02:45:32;99551.69;;;23.22;45.81
4410;BME280;2218;51.408;7.208;2023-07-22T02:47:59;99555.06;;;23.24;45.90
4410;BME280;2218;51.408;7.208;2023-07-22T02:50:28;99548.09;;;23.23;45.99
4410;BME280;2218;51.408;7.208;2023-07-22T02:52:55;99548.09;;;23.23;46.18
4410;BME280;2218;51.408;7.208;2023-07-22T02:55:22;99550.75;;;23.23;46.37
4410;BME280;2218;51.408;7.208;2023-07-22T02:57:49;99552.69;;;23.21;45.87
4410;BME280;2218;51.408;7.208;2023-07-22T03:00:19;99557.13;;;23.20;46.12
4410;BME280;2218;51.408;7.208;2023-07-22T03:02:50;99556.16;;;23.21;46.18
4410;BME280;2218;51.408;7.208;2023-07-22T03:05:19;99549.19;;;23.20;45.75
4410;BME280;2218;51.408;7.208;2023-07-22T03:07:48;99546.53;;;23.20;45.79
4410;BME280;2218;51.408;7.208;2023-07-22T03:10:15;99556.31;;;23.20;45.68
4410;BME280;2218;51.408;7.208;2023-07-22T03:12:42;99545.69;;;23.20;46.16
4410;BME280;2218;51.408;7.208;2023-07-22T03:15:10;99552.81;;;23.19;45.77
4410;BME280;2218;51.408;7.208;2023-07-22T03:17:39;99548.50;;;23.18;46.08
4410;BME280;2218;51.408;7.208;2023-07-22T03:20:08;99550.16;;;23.19;46.36
4410;BME280;2218;51.408;7.208;2023-07-22T03:22:39;99556.31;;;23.20;45.75
4410;BME280;2218;51.408;7.208;2023-07-22T03:25:08;99553.81;;;23.18;46.18
4410;BME280;2218;51.408;7.208;2023-07-22T03:27:36;99553.81;;;23.18;45.92
4410;BME280;2218;51.408;7.208;2023-07-22T03:30:05;99559.09;;;23.18;46.38
4410;BME280;2218;51.408;7.208;2023-07-22T03:32:33;99558.25;;;23.18;46.00
4410;BME280;2218;51.408;7.208;2023-07-22T03:35:00;99557.44;;;23.17;46.17
4410;BME280;2218;51.408;7.208;2023-07-22T03:37:29;99563.56;;;23.18;46.17
4410;BME280;2218;51.408;7.208;2023-07-22T03:39:56;99553.91;;;23.17;45.96
4410;BME280;2218;51.408;7.208;2023-07-22T03:42:24;99561.88;;;23.17;45.69
4410;BME280;2218;51.408;7.208;2023-07-22T03:44:51;99561.88;;;23.17;46.21
4410;BME280;2218;51.408;7.208;2023-07-22T03:47:19;99560.19;;;23.16;45.79
4410;BME280;2218;51.408;7.208;2023-07-22T03:49:46;99559.34;;;23.15;45.77
4410;BME280;2218;51.408;7.208;2023-07-22T03:52:13;99560.19;;;23.16;46.17
4410;BME280;2218;51.408;7.208;2023-07-22T03:54:43;99559.34;;;23.15;45.65
4410;BME280;2218;51.408;7.208;2023-07-22T03:57:10;99557.53;;;23.16;45.81
4410;BME280;2218;51.408;7.208;2023-07-22T03:59:39;99563.81;;;23.15;45.63
4410;BME280;2218;51.408;7.208;2023-07-22T04:02:06;99555.03;;;23.14;45.86
4410;BME280;2218;51.408;7.208;2023-07-22T04:04:33;99557.69;;;23.14;46.13
4410;BME280;2218;51.408;7.208;2023-07-22T04:07:00;99563.81;;;23.15;46.20
4410;BME280;2218;51.408;7.208;2023-07-22T04:09:27;99558.53;;;23.15;45.71
4410;BME280;2218;51.408;7.208;2023-07-22T04:11:54;99563.00;;;23.14;45.70
4410;BME280;2218;51.408;7.208;2023-07-22T04:14:21;99567.47;;;23.14;46.02
4410;BME280;2218;51.408;7.208;2023-07-22T04:16:51;99562.16;;;23.14;46.03
4410;BME280;2218;51.408;7.208;2023-07-22T04:19:18;99566.63;;;23.13;46.32
4410;BME280;2218;51.408;7.208;2023-07-22T04:21:45;99568.44;;;23.13;45.56
4410;BME280;2218;51.408;7.208;2023-07-22T04:24:12;99565.78;;;23.13;45.78
4410;BME280;2218;51.408;7.208;2023-07-22T04:26:42;99571.09;;;23.13;45.87
4410;BME280;2218;51.408;7.208;2023-07-22T04:29:09;99571.91;;;23.13;46.28
4410;BME280;2218;51.408;7.208;2023-07-22T04:31:38;99571.09;;;23.13;46.12
4410;BME280;2218;51.408;7.208;2023-07-22T04:34:06;99576.38;;;23.13;45.75
4410;BME280;2218;51.408;7.208;2023-07-22T04:36:33;99576.38;;;23.13;46.12
4410;BME280;2218;51.408;7.208;2023-07-22T04:39:02;99574.69;;;23.12;45.60
4410;BME280;2218;51.408;7.208;2023-07-22T04:41:30;99580.00;;;23.12;45.59
4410;BME280;2218;51.408;7.208;2023-07-22T04:43:57;99587.00;;;23.13;45.80
4410;BME280;2218;51.408;7.208;2023-07-22T04:46:25;99586.16;;;23.12;45.94
4410;BME280;2218;51.408;7.208;2023-07-22T04:48:53;99580.00;;;23.12;45.87
4410;BME280;2218;51.408;7.208;2023-07-22T04:51:22;99573.84;;;23.11;46.03
4410;BME280;2218;51.408;7.208;2023-07-22T04:53:49;99573.00;;;23.11;45.95
4410;BME280;2218;51.408;7.208;2023-07-22T04:56:16;99573.84;;;23.11;45.84
4410;BME280;2218;51.408;7.208;2023-07-22T04:58:43;99581.81;;;23.11;46.06
4410;BME280;2218;51.408;7.208;2023-07-22T05:01:10;99572.31;;;23.09;46.05
4410;BME280;2218;51.408;7.208;2023-07-22T05:03:37;99582.78;;;23.10;45.74
4410;BME280;2218;51.408;7.208;2023-07-22T05:06:05;99576.66;;;23.10;45.76
4410;BME280;2218;51.408;7.208;2023-07-22T05:08:35;99581.94;;;23.10;45.92
4410;BME280;2218;51.408;7.208;2023-07-22T05:11:04;99576.66;;;23.10;46.00
4410;BME280;2218;51.408;7.208;2023-07-22T05:13:30;99574.97;;;23.09;46.01
4410;BME280;2218;51.408;7.208;2023-07-22T05:15:57;99568.69;;;23.10;45.88
4410;BME280;2218;51.408;7.208;2023-07-22T05:18:24;99574.97;;;23.09;46.01
4410;BME280;2218;51.408;7.208;2023-07-22T05:20:51;99576.66;;;23.10;45.91
4410;BME280;2218;51.408;7.208;2023-07-22T05:23:18;99576.66;;;23.10;45.98
4410;BME280;2218;51.408;7.208;2023-07-22T05:25:52;99576.66;;;23.10;45.42
4410;BME280;2218;51.408;7.208;2023-07-22T05:28:19;99575.81;;;23.09;45.98
4410;BME280;2218;51.408;7.208;2023-07-22T05:30:46;99581.13;;;23.09;45.45
4410;BME280;2218;51.408;7.208;2023-07-22T05:33:13;99579.44;;;23.08;45.17
4410;BME280;2218;51.408;7.208;2023-07-22T05:35:40;99589.91;;;23.10;45.77
4410;BME280;2218;51.408;7.208;2023-07-22T05:38:07;99587.25;;;23.10;45.92
4410;BME280;2218;51.408;7.208;2023-07-22T05:40:34;99588.09;;;23.10;45.89
4410;BME280;2218;51.408;7.208;2023-07-22T05:43:02;99588.66;;;23.14;45.92
4410;BME280;2218;51.408;7.208;2023-07-22T05:45:29;99584.19;;;23.14;45.59
4410;BME280;2218;51.408;7.208;2023-07-22T05:47:56;99585.88;;;23.15;45.23
4410;BME280;2218;51.408;7.208;2023-07-22T05:50:23;99591.75;;;23.19;45.45
4410;BME280;2218;51.408;7.208;2023-07-22T05:52:51;99593.16;;;23.23;45.66
4410;BME280;2218;51.408;7.208;2023-07-22T05:55:18;99582.56;;;23.23;45.11
4410;BME280;2218;51.408;7.208;2023-07-22T05:57:45;99589.25;;;23.27;44.98
4410;BME280;2218;51.408;7.208;2023-07-22T06:00:14;99583.69;;;23.30;45.32
4410;BME280;2218;51.408;7.208;2023-07-22T06:02:41;99585.34;;;23.31;44.99
4410;BME280;2218;51.408;7.208;2023-07-22T06:05:08;99585.09;;;23.34;45.33
4410;BME280;2218;51.408;7.208;2023-07-22T06:07:35;99580.47;;;23.36;44.79
4410;BME280;2218;51.408;7.208;2023-07-22T06:10:04;99576.88;;;23.37;45.35
4410;BME280;2218;51.408;7.208;2023-07-22T06:12:31;99587.34;;;23.39;45.19
4410;BME280;2218;51.408;7.208;2023-07-22T06:14:57;99573.09;;;23.40;44.93
4410;BME280;2218;51.408;7.208;2023-07-22T06:17:26;99577.44;;;23.41;44.71
4410;BME280;2218;51.408;7.208;2023-07-22T06:19:53;99575.50;;;23.43;45.13
4410;BME280;2218;51.408;7.208;2023-07-22T06:22:19;99582.63;;;23.42;45.06
4410;BME280;2218;51.408;7.208;2023-07-22T06:24:46;99581.50;;;23.45;45.07
4410;BME280;2218;51.408;7.208;2023-07-22T06:27:13;99581.34;;;23.46;44.57
4410;BME280;2218;51.408;7.208;2023-07-22T06:29:40;99582.06;;;23.48;45.10
4410;BME280;2218;51.408;7.208;2023-07-22T06:32:08;99581.09;;;23.50;44.87
4410;BME280;2218;51.408;7.208;2023-07-22T06:34:36;99584.56;;;23.50;44.75
4410;BME280;2218;51.408;7.208;2023-07-22T06:37:03;99579.25;;;23.50;45.13
4410;BME280;2218;51.408;7.208;2023-07-22T06:39:30;99585.16;;;23.54;44.87
4410;BME280;2218;51.408;7.208;2023-07-22T06:41:57;99580.66;;;23.54;45.06
4410;BME280;2218;51.408;7.208;2023-07-22T06:44:24;99588.47;;;23.56;44.99
4410;BME280;2218;51.408;7.208;2023-07-22T06:46:51;99583.91;;;23.58;44.82
4410;BME280;2218;51.408;7.208;2023-07-22T06:49:18;99585.72;;;23.57;44.64
4410;BME280;2218;51.408;7.208;2023-07-22T06:51:46;99589.06;;;23.59;44.68
4410;BME280;2218;51.408;7.208;2023-07-22T06:54:13;99593.53;;;23.59;44.52
4410;BME280;2218;51.408;7.208;2023-07-22T06:56:40;99580.94;;;23.61;44.72
4410;BME280;2218;51.408;7.208;2023-07-22T06:59:07;99582.63;;;23.62;44.73
4410;BME280;2218;51.408;7.208;2023-07-22T07:01:34;99580.72;;;23.64;44.78
4410;BME280;2218;51.408;7.208;2023-07-22T07:04:01;99576.25;;;23.64;44.92
4410;BME280;2218;51.408;7.208;2023-07-22T07:06:29;99577.09;;;23.65;44.62
4410;BME280;2218;51.408;7.208;2023-07-22T07:08:59;99580.44;;;23.67;44.46
4410;BME280;2218;51.408;7.208;2023-07-22T07:11:28;99574.44;;;23.65;44.34
4410;BME280;2218;51.408;7.208;2023-07-22T07:13:55;99575.13;;;23.67;44.48
4410;BME280;2218;51.408;7.208;2023-07-22T07:16:26;99574.28;;;23.66;44.46
4410;BME280;2218;51.408;7.208;2023-07-22T07:18:54;99569.13;;;23.65;44.50
4410;BME280;2218;51.408;7.208;2023-07-22T07:21:22;99579.47;;;23.68;44.68
4410;BME280;2218;51.408;7.208;2023-07-22T07:23:50;99579.47;;;23.68;44.55
4410;BME280;2218;51.408;7.208;2023-07-22T07:26:19;99573.19;;;23.69;44.17
4410;BME280;2218;51.408;7.208;2023-07-22T07:28:46;99566.91;;;23.70;44.06
4410;BME280;2218;51.408;7.208;2023-07-22T07:31:14;99570.38;;;23.70;44.18
4410;BME280;2218;51.408;7.208;2023-07-22T07:33:41;99582.66;;;23.71;44.07
4410;BME280;2218;51.408;7.208;2023-07-22T07:36:08;99578.34;;;23.70;44.19
4410;BME280;2218;51.408;7.208;2023-07-22T07:38:35;99586.31;;;23.70;44.25
4410;BME280;2218;51.408;7.208;2023-07-22T07:41:04;99576.53;;;23.71;44.48
4410;BME280;2218;51.408;7.208;2023-07-22T07:43:35;99583.53;;;23.72;44.35
4410;BME280;2218;51.408;7.208;2023-07-22T07:46:17;99576.41;;;23.72;44.13
4410;BME280;2218;51.408;7.208;2023-07-22T07:48:46;99579.91;;;23.73;44.52
4410;BME280;2218;51.408;7.208;2023-07-22T07:51:14;99579.91;;;23.73;44.06
4410;BME280;2218;51.408;7.208;2023-07-22T07:53:42;99578.09;;;23.73;44.41
4410;BME280;2218;51.408;7.208;2023-07-22T07:56:11;99580.72;;;23.73;44.38
4410;BME280;2218;51.408;7.208;2023-07-22T07:58:40;99588.53;;;23.75;44.04
4410;BME280;2218;51.408;7.208;2023-07-22T08:01:07;99577.94;;;23.75;44.20
4410;BME280;2218;51.408;7.208;2023-07-22T08:03:36;99590.22;;;23.76;43.92
4410;BME280;2218;51.408;7.208;2023-07-22T08:06:04;99587.56;;;23.76;44.13
4410;BME280;2218;51.408;7.208;2023-07-22T08:08:32;99585.75;;;23.77;44.52
4410;BME280;2218;51.408;7.208;2023-07-22T08:11:00;99589.25;;;23.77;44.13
4410;BME280;2218;51.408;7.208;2023-07-22T08:13:27;99597.22;;;23.77;44.57
4410;BME280;2218;51.408;7.208;2023-07-22T08:15:58;99588.41;;;23.77;44.39
4410;BME280;2218;51.408;7.208;2023-07-22T08:18:25;99589.25;;;23.77;44.04
4410;BME280;2218;51.408;7.208;2023-07-22T08:20:53;99585.63;;;23.78;44.03
4410;BME280;2218;51.408;7.208;2023-07-22T08:23:20;99595.25;;;23.79;44.06
4410;BME280;2218;51.408;7.208;2023-07-22T08:25:48;99594.28;;;23.80;43.99
4410;BME280;2218;51.408;7.208;2023-07-22T08:28:15;99589.13;;;23.79;43.94
4410;BME280;2218;51.408;7.208;2023-07-22T08:30:43;99583.81;;;23.79;44.53
4410;BME280;2218;51.408;7.208;2023-07-22T08:33:13;99582.97;;;23.78;44.48
4410;BME280;2218;51.408;7.208;2023-07-22T08:35:40;99582.00;;;23.79;43.93
4410;BME280;2218;51.408;7.208;2023-07-22T08:38:08;99590.78;;;23.80;44.44
4410;BME280;2218;51.408;7.208;2023-07-22T08:40:36;99593.44;;;23.80;43.99
4410;BME280;2218;51.408;7.208;2023-07-22T08:43:05;99591.63;;;23.80;44.31
4410;BME280;2218;51.408;7.208;2023-07-22T08:45:35;99591.63;;;23.80;44.21
4410;BME280;2218;51.408;7.208;2023-07-22T08:48:04;99582.69;;;23.81;44.42
4410;BME280;2218;51.408;7.208;2023-07-22T08:50:44;99587.03;;;23.82;44.33
4410;BME280;2218;51.408;7.208;2023-07-22T08:53:12;99581.72;;;23.82;44.75
4410;BME280;2218;51.408;7.208;2023-07-22T08:55:39;99597.66;;;23.82;44.58
4410;BME280;2218;51.408;7.208;2023-07-22T08:58:09;99595.84;;;23.83;44.37
4410;BME280;2218;51.408;7.208;2023-07-22T09:00:38;99591.34;;;23.83;44.18
4410;BME280;2218;51.408;7.208;2023-07-22T09:03:06;99585.22;;;23.83;44.04
4410;BME280;2218;51.408;7.208;2023-07-22T09:05:36;99581.56;;;23.84;44.06
4410;BME280;2218;51.408;7.208;2023-07-22T09:08:07;99586.06;;;23.83;44.12
4410;BME280;2218;51.408;7.208;2023-07-22T09:10:34;99586.75;;;23.85;44.38
4410;BME280;2218;51.408;7.208;2023-07-22T09:13:03;99588.56;;;23.85;44.23
4410;BME280;2218;51.408;7.208;2023-07-22T09:15:34;99592.03;;;23.85;44.14
4410;BME280;2218;51.408;7.208;2023-07-22T09:18:01;99583.25;;;23.85;44.08
4410;BME280;2218;51.408;7.208;2023-07-22T09:20:29;99588.41;;;23.86;43.98
4410;BME280;2218;51.408;7.208;2023-07-22T09:22:59;99584.91;;;23.86;44.12
4410;BME280;2218;51.408;7.208;2023-07-22T09:25:28;99594.69;;;23.85;44.34
4410;BME280;2218;51.408;7.208;2023-07-22T09:27:58;99588.56;;;23.85;44.48
4410;BME280;2218;51.408;7.208;2023-07-22T09:30:27;99585.06;;;23.84;44.06
4410;BME280;2218;51.408;7.208;2023-07-22T09:32:57;99593.88;;;23.85;44.01
4410;BME280;2218;51.408;7.208;2023-07-22T09:35:27;99592.19;;;23.84;44.39
4410;BME280;2218;51.408;7.208;2023-07-22T09:37:54;99586.06;;;23.83;44.55
4410;BME280;2218;51.408;7.208;2023-07-22T09:40:25;99587.72;;;23.84;43.89
4410;BME280;2218;51.408;7.208;2023-07-22T09:42:55;99591.22;;;23.85;43.86
4410;BME280;2218;51.408;7.208;2023-07-22T09:45:25;99581.56;;;23.84;43.75
4410;BME280;2218;51.408;7.208;2023-07-22T09:47:55;99590.38;;;23.84;44.27
4410;BME280;2218;51.408;7.208;2023-07-22T09:50:23;99595.69;;;23.84;43.98
4410;BME280;2218;51.408;7.208;2023-07-22T09:52:52;99584.22;;;23.84;44.09
4410;BME280;2218;51.408;7.208;2023-07-22T09:55:23;99585.06;;;23.84;44.14
4410;BME280;2218;51.408;7.208;2023-07-22T09:57:55;99586.06;;;23.83;44.11
4410;BME280;2218;51.408;7.208;2023-07-22T10:00:25;99585.06;;;23.84;44.34
4410;BME280;2218;51.408;7.208;2023-07-22T10:02:57;99587.72;;;23.84;44.01
4410;BME280;2218;51.408;7.208;2023-07-22T10:05:26;99584.22;;;23.84;44.22
4410;BME280;2218;51.408;7.208;2023-07-22T10:07:57;99592.19;;;23.84;44.10
4410;BME280;2218;51.408;7.208;2023-07-22T10:10:30;99582.41;;;23.84;44.25
4410;BME280;2218;51.408;7.208;2023-07-22T10:12:58;99581.56;;;23.84;44.06
4410;BME280;2218;51.408;7.208;2023-07-22T10:15:27;99584.09;;;23.85;44.28
4410;BME280;2218;51.408;7.208;2023-07-22T10:17:56;99588.56;;;23.85;44.54
4410;BME280;2218;51.408;7.208;2023-07-22T10:20:24;99587.72;;;23.84;43.72
4410;BME280;2218;51.408;7.208;2023-07-22T10:22:51;99583.25;;;23.85;44.33
4410;BME280;2218;51.408;7.208;2023-07-22T10:25:20;99581.44;;;23.85;43.95
4410;BME280;2218;51.408;7.208;2023-07-22T10:27:52;99583.09;;;23.86;44.41
4410;BME280;2218;51.408;7.208;2023-07-22T10:30:19;99577.78;;;23.86;44.02
4410;BME280;2218;51.408;7.208;2023-07-22T10:32:50;99569.00;;;23.86;44.08
4410;BME280;2218;51.408;7.208;2023-07-22T10:35:34;99568.16;;;23.85;44.13
4410;BME280;2218;51.408;7.208;2023-07-22T10:38:10;99577.78;;;23.86;44.15
4410;BME280;2218;51.408;7.208;2023-07-22T10:40:46;99574.31;;;23.86;43.72
4410;BME280;2218;51.408;7.208;2023-07-22T10:43:16;99568.16;;;23.85;43.94
4410;BME280;2218;51.408;7.208;2023-07-22T10:45:51;99568.00;;;23.87;44.42
4410;BME280;2218;51.408;7.208;2023-07-22T10:48:20;99568.88;;;23.87;44.35
4410;BME280;2218;51.408;7.208;2023-07-22T10:50:51;99571.53;;;23.87;43.96
4410;BME280;2218;51.408;7.208;2023-07-22T10:53:29;99565.34;;;23.87;44.27
4410;BME280;2218;51.408;7.208;2023-07-22T10:56:11;99560.91;;;23.87;43.87
4410;BME280;2218;51.408;7.208;2023-07-22T10:59:00;99553.06;;;23.86;44.13
4410;BME280;2218;51.408;7.208;2023-07-22T11:01:35;99548.59;;;23.86;44.46
4410;BME280;2218;51.408;7.208;2023-07-22T11:04:09;99544.13;;;23.87;43.85
4410;BME280;2218;51.408;7.208;2023-07-22T11:06:38;99540.63;;;23.86;44.08
4410;BME280;2218;51.408;7.208;2023-07-22T11:09:05;99535.31;;;23.86;44.12
4410;BME280;2218;51.408;7.208;2023-07-22T11:11:37;99539.69;;;23.87;43.79
4410;BME280;2218;51.408;7.208;2023-07-22T11:14:19;99531.84;;;23.86;44.03
4410;BME280;2218;51.408;7.208;2023-07-22T11:16:48;99527.38;;;23.86;44.02
4410;BME280;2218;51.408;7.208;2023-07-22T11:19:16;99525.69;;;23.85;44.16
4410;BME280;2218;51.408;7.208;2023-07-22T11:21:45;99526.53;;;23.86;44.07
4410;BME280;2218;51.408;7.208;2023-07-22T11:24:12;99521.22;;;23.86;44.36
4410;BME280;2218;51.408;7.208;2023-07-22T11:26:39;99519.41;;;23.86;44.36
4410;BME280;2218;51.408;7.208;2023-07-22T11:29:09;99517.59;;;23.87;43.78
4410;BME280;2218;51.408;7.208;2023-07-22T11:31:40;99520.25;;;23.87;44.23
4410;BME280;2218;51.408;7.208;2023-07-22T11:34:08;99524.72;;;23.86;44.07
4410;BME280;2218;51.408;7.208;2023-07-22T11:36:35;99519.41;;;23.86;43.77
4410;BME280;2218;51.408;7.208;2023-07-22T11:39:04;99522.91;;;23.87;43.97
4410;BME280;2218;51.408;7.208;2023-07-22T11:41:32;99516.63;;;23.88;43.73
4410;BME280;2218;51.408;7.208;2023-07-22T11:44:00;99514.81;;;23.88;44.30
4410;BME280;2218;51.408;7.208;2023-07-22T11:46:28;99511.31;;;23.88;44.17
4410;BME280;2218;51.408;7.208;2023-07-22T11:48:56;99506.03;;;23.88;43.77
4410;BME280;2218;51.408;7.208;2023-07-22T11:51:24;99519.28;;;23.88;43.97
4410;BME280;2218;51.408;7.208;2023-07-22T11:53:54;99510.34;;;23.89;44.00
4410;BME280;2218;51.408;7.208;2023-07-22T11:56:23;99520.13;;;23.88;44.03
4410;BME280;2218;51.408;7.208;2023-07-22T11:58:52;99510.50;;;23.87;43.82
4410;BME280;2218;51.408;7.208;2023-07-22T12:01:19;99514.81;;;23.88;44.00
4410;BME280;2218;51.408;7.208;2023-07-22T12:03:47;99504.31;;;23.87;43.75
4410;BME280;2218;51.408;7.208;2023-07-22T12:06:16;99506.03;;;23.88;44.22
4410;BME280;2218;51.408;7.208;2023-07-22T12:08:45;99504.19;;;23.88;44.10
4410;BME280;2218;51.408;7.208;2023-07-22T12:11:18;99496.22;;;23.88;44.07
4410;BME280;2218;51.408;7.208;2023-07-22T12:13:46;99489.94;;;23.89;44.22
4410;BME280;2218;51.408;7.208;2023-07-22T12:16:22;99496.09;;;23.90;43.90
4410;BME280;2218;51.408;7.208;2023-07-22T12:18:54;99489.09;;;23.89;43.69
4410;BME280;2218;51.408;7.208;2023-07-22T12:21:23;99489.94;;;23.89;44.14
4410;BME280;2218;51.408;7.208;2023-07-22T12:23:50;99483.66;;;23.90;43.86
4410;BME280;2218;51.408;7.208;2023-07-22T12:26:17;99481.00;;;23.90;44.00
4410;BME280;2218;51.408;7.208;2023-07-22T12:28:44;99486.31;;;23.90;43.53
4410;BME280;2218;51.408;7.208;2023-07-22T12:31:11;99491.59;;;23.90;43.78
4410;BME280;2218;51.408;7.208;2023-07-22T12:33:38;99486.31;;;23.90;43.67
4410;BME280;2218;51.408;7.208;2023-07-22T12:36:05;99481.81;;;23.91;43.72
4410;BME280;2218;51.408;7.208;2023-07-22T12:38:33;99483.66;;;23.90;44.27
4410;BME280;2218;51.408;7.208;2023-07-22T12:41:01;99482.66;;;23.91;43.41
4410;BME280;2218;51.408;7.208;2023-07-22T12:43:29;99478.22;;;23.92;43.90
4410;BME280;2218;51.408;7.208;2023-07-22T12:45:56;99480.88;;;23.92;43.79
4410;BME280;2218;51.408;7.208;2023-07-22T12:48:23;99481.00;;;23.90;43.82
4410;BME280;2218;51.408;7.208;2023-07-22T12:50:51;99470.38;;;23.90;43.67
4410;BME280;2218;51.408;7.208;2023-07-22T12:53:18;99465.06;;;23.90;43.72
4410;BME280;2218;51.408;7.208;2023-07-22T12:55:46;99463.25;;;23.91;43.76
4410;BME280;2218;51.408;7.208;2023-07-22T12:58:14;99461.44;;;23.91;44.13
4410;BME280;2218;51.408;7.208;2023-07-22T13:00:41;99464.09;;;23.91;43.36
4410;BME280;2218;51.408;7.208;2023-07-22T13:03:08;99462.28;;;23.92;43.53
4410;BME280;2218;51.408;7.208;2023-07-22T13:05:35;99467.59;;;23.92;43.47
4410;BME280;2218;51.408;7.208;2023-07-22T13:08:03;99468.44;;;23.92;43.40
4410;BME280;2218;51.408;7.208;2023-07-22T13:10:35;99463.97;;;23.93;43.28
4410;BME280;2218;51.408;7.208;2023-07-22T13:13:05;99459.50;;;23.93;43.01
4410;BME280;2218;51.408;7.208;2023-07-22T13:15:32;99462.16;;;23.93;43.73
4410;BME280;2218;51.408;7.208;2023-07-22T13:17:59;99463.81;;;23.94;43.96
4410;BME280;2218;51.408;7.208;2023-07-22T13:20:26;99447.06;;;23.94;43.43
4410;BME280;2218;51.408;7.208;2023-07-22T13:22:53;99451.53;;;23.93;43.29
4410;BME280;2218;51.408;7.208;2023-07-22T13:25:20;99448.88;;;23.93;43.46
4410;BME280;2218;51.408;7.208;2023-07-22T13:27:47;99442.56;;;23.94;43.46